Time;durP1;ratioP1;P1;durP2;ratioP2;P2;SDS_P1;SDS_P2;PMS_P1;PMS_P2;Temp;Humidity;BMP_temperature;BMP_pressure;BME280_temperature;BME280_humidity;BME280_pressure;Samples;Min_cycle;Max_cycle;Signal;HPM_P1;HPM_P2
2022/05/31 00:01:37;;;;;;;8.33;4.37;;;17.40;99.90;;;;;;5034399;28;20464;-94
2022/05/31 00:04:03;;;;;;;4.20;3.70;;;17.40;99.90;;;;;;5035215;28;20791;-93
2022/05/31 00:06:29;;;;;;;5.00;4.47;;;17.40;99.90;;;;;;5035087;28;20411;-91
2022/05/31 00:08:55;;;;;;;6.67;4.60;;;17.40;99.90;;;;;;5052841;28;20464;-92
2022/05/31 00:11:21;;;;;;;7.27;4.70;;;17.40;99.90;;;;;;5034954;28;20435;-93
2022/05/31 00:13:47;;;;;;;4.77;3.67;;;17.40;99.90;;;;;;5034182;28;20262;-92
2022/05/31 00:16:13;;;;;;;5.30;3.60;;;17.40;99.90;;;;;;5034859;28;20423;-92
2022/05/31 00:18:39;;;;;;;4.80;3.70;;;17.40;99.90;;;;;;5035114;28;20466;-91
2022/05/31 00:21:05;;;;;;;5.50;3.93;;;17.40;99.90;;;;;;5035876;28;20904;-93
2022/05/31 00:23:31;;;;;;;4.87;4.27;;;17.40;99.90;;;;;;5035365;28;20240;-91
2022/05/31 00:25:57;;;;;;;7.70;4.07;;;17.40;99.90;;;;;;5034334;28;20407;-93
2022/05/31 00:28:24;;;;;;;6.50;4.07;;;17.40;99.90;;;;;;5035243;28;20970;-91
2022/05/31 00:30:50;;;;;;;5.13;3.87;;;17.40;99.90;;;;;;5035201;28;20581;-94
2022/05/31 00:33:16;;;;;;;5.70;4.43;;;17.30;99.90;;;;;;5034528;28;21038;-90
2022/05/31 00:35:48;;;;;;;4.10;3.67;;;17.30;99.90;;;;;;5052149;28;20403;-92
2022/05/31 00:38:14;;;;;;;4.30;3.60;;;17.30;99.90;;;;;;5033875;28;20461;-90
2022/05/31 00:40:40;;;;;;;4.27;3.87;;;17.20;99.90;;;;;;5052105;28;20403;-90
2022/05/31 00:43:12;;;;;;;7.40;4.20;;;17.30;99.90;;;;;;5052376;28;20541;-91
2022/05/31 00:45:43;;;;;;;5.77;4.13;;;17.20;99.90;;;;;;5034844;28;20414;-94
2022/05/31 00:48:31;;;;;;;5.17;4.67;;;17.20;99.90;;;;;;5037087;28;20996;-92
2022/05/31 00:51:06;;;;;;;8.67;4.83;;;17.20;99.90;;;;;;5038159;28;20414;-94
2022/05/31 00:53:39;;;;;;;6.23;4.43;;;17.20;99.90;;;;;;5055987;28;20530;-94
2022/05/31 00:56:14;;;;;;;6.10;3.60;;;17.20;99.90;;;;;;5037986;28;20418;-91
2022/05/31 00:58:46;;;;;;;3.50;3.20;;;17.20;99.90;;;;;;5037276;28;20934;-91
2022/05/31 01:01:16;;;;;;;5.40;4.00;;;17.20;99.90;;;;;;5055533;28;20805;-94
2022/05/31 01:03:43;;;;;;;5.27;4.60;;;17.20;99.90;;;;;;5038421;28;20938;-94
2022/05/31 01:06:13;;;;;;;4.37;3.90;;;17.20;99.90;;;;;;5055524;28;20414;-94
2022/05/31 01:08:45;;;;;;;4.43;4.00;;;17.20;99.90;;;;;;5037381;28;20442;-94
2022/05/31 01:11:15;;;;;;;6.37;5.20;;;17.20;99.90;;;;;;5038647;28;20419;-91
2022/05/31 01:13:42;;;;;;;5.53;4.27;;;17.20;99.90;;;;;;5038985;28;20486;-91
2022/05/31 01:16:11;;;;;;;6.97;4.57;;;17.20;99.90;;;;;;5040473;28;20438;-93
2022/05/31 01:18:37;;;;;;;4.40;4.00;;;17.20;99.90;;;;;;5034793;28;20487;-91
2022/05/31 01:21:04;;;;;;;8.23;4.20;;;17.20;99.90;;;;;;5046881;27;20499;-95
2022/05/31 01:23:47;;;;;;;5.80;4.77;;;17.20;99.90;;;;;;5059328;28;20443;-94
2022/05/31 01:26:33;;;;;;;7.00;3.73;;;17.20;99.90;;;;;;5071508;28;20791;-93
2022/05/31 01:29:33;;;;;;;4.20;3.80;;;17.20;99.90;;;;;;5098121;27;20438;-93
2022/05/31 01:32:05;;;;;;;9.80;4.67;;;17.20;99.90;;;;;;5042978;27;20980;-91
2022/05/31 01:34:39;;;;;;;5.70;4.83;;;17.20;99.90;;;;;;5139313;27;20482;-93
2022/05/31 01:37:06;;;;;;;5.77;5.10;;;17.20;99.90;;;;;;5051356;27;20565;-91
2022/05/31 01:39:34;;;;;;;6.57;4.90;;;17.20;99.90;;;;;;5056947;28;20476;-91
2022/05/31 01:42:09;;;;;;;7.23;5.10;;;17.20;99.90;;;;;;5133247;27;20415;-93
2022/05/31 01:44:41;;;;;;;6.10;3.87;;;17.20;99.90;;;;;;5056109;28;20522;-91
2022/05/31 01:47:07;;;;;;;5.83;4.30;;;17.20;99.90;;;;;;5049400;27;20431;-93
2022/05/31 01:49:38;;;;;;;5.30;4.23;;;17.20;99.90;;;;;;5056463;28;20436;-92
2022/05/31 01:52:04;;;;;;;7.30;5.07;;;17.20;99.90;;;;;;5048660;27;20549;-93
2022/05/31 01:54:31;;;;;;;9.70;4.67;;;17.20;99.90;;;;;;5058469;28;21020;-93
2022/05/31 01:57:01;;;;;;;5.63;4.83;;;17.20;99.90;;;;;;5042036;27;20439;-94
2022/05/31 01:59:30;;;;;;;6.60;4.77;;;17.20;99.90;;;;;;5059261;28;20431;-94
2022/05/31 02:01:56;;;;;;;5.30;4.80;;;17.20;99.90;;;;;;5042306;27;20518;-94
2022/05/31 02:04:22;;;;;;;6.83;5.27;;;17.20;99.90;;;;;;5141881;27;20451;-89
2022/05/31 02:07:10;;;;;;;8.10;5.00;;;17.20;99.90;;;;;;5050846;28;20448;-90
2022/05/31 02:09:34;;;;;;;8.27;4.47;;;17.20;99.90;;;;;;5140001;27;20623;-91
2022/05/31 02:11:59;;;;;;;6.20;4.87;;;17.20;99.90;;;;;;5051391;27;20444;-91
2022/05/31 02:14:25;;;;;;;5.80;4.80;;;17.20;99.90;;;;;;5061941;28;20245;-89
2022/05/31 02:16:51;;;;;;;5.60;4.33;;;17.20;99.90;;;;;;5038285;28;20229;-94
2022/05/31 02:19:23;;;;;;;5.40;4.13;;;17.20;99.90;;;;;;5056843;28;20511;-94
2022/05/31 02:21:50;;;;;;;6.03;5.40;;;17.20;99.90;;;;;;5037330;28;20601;-94
2022/05/31 02:24:16;;;;;;;5.70;3.93;;;17.20;99.90;;;;;;5056216;28;20463;-91
2022/05/31 02:26:43;;;;;;;6.23;4.67;;;17.20;99.90;;;;;;5042269;28;20439;-91
2022/05/31 02:29:13;;;;;;;4.93;4.43;;;17.20;99.90;;;;;;5056955;28;20976;-93
2022/05/31 02:31:39;;;;;;;7.10;4.27;;;17.10;99.90;;;;;;5037694;28;20427;-94
2022/05/31 02:34:06;;;;;;;7.50;4.63;;;17.10;99.90;;;;;;5044479;28;20479;-91
2022/05/31 02:36:34;;;;;;;5.40;4.50;;;17.10;99.90;;;;;;5039914;28;20919;-94
2022/05/31 02:39:00;;;;;;;6.10;4.53;;;17.10;99.90;;;;;;5050967;28;20440;-91
2022/05/31 02:41:26;;;;;;;4.70;4.30;;;17.00;99.90;;;;;;5038152;28;20962;-93
2022/05/31 02:43:52;;;;;;;5.63;5.03;;;17.00;99.90;;;;;;5053104;28;20415;-93
2022/05/31 02:46:18;;;;;;;5.83;4.17;;;17.00;99.90;;;;;;5034951;28;20452;-93
2022/05/31 02:48:44;;;;;;;7.00;5.10;;;17.00;99.90;;;;;;5052721;28;20423;-93
2022/05/31 02:51:10;;;;;;;5.90;4.60;;;17.00;99.90;;;;;;5034928;28;20778;-90
2022/05/31 02:53:37;;;;;;;7.47;5.53;;;17.00;99.90;;;;;;5035855;28;20229;-90
2022/05/31 02:56:03;;;;;;;8.57;4.97;;;17.00;99.90;;;;;;5034786;28;20471;-93
2022/05/31 02:58:30;;;;;;;9.57;5.47;;;17.00;99.90;;;;;;5052556;28;20850;-93
2022/05/31 03:00:56;;;;;;;7.70;5.63;;;17.00;99.90;;;;;;5034981;28;20415;-93
2022/05/31 03:03:22;;;;;;;7.97;4.83;;;17.00;99.90;;;;;;5034553;28;20458;-93
2022/05/31 03:05:49;;;;;;;6.67;5.33;;;16.90;99.90;;;;;;5036266;28;20174;-91
2022/05/31 03:08:14;;;;;;;7.30;5.30;;;17.00;99.90;;;;;;5034531;28;20598;-93
2022/05/31 03:10:44;;;;;;;7.13;5.30;;;17.00;99.90;;;;;;5034211;28;20460;-90
2022/05/31 03:13:15;;;;;;;8.13;5.50;;;16.90;99.90;;;;;;5034432;28;20312;-91
2022/05/31 03:15:41;;;;;;;8.97;6.23;;;16.90;99.90;;;;;;5035248;28;20400;-94
2022/05/31 03:18:15;;;;;;;7.93;4.87;;;16.90;99.90;;;;;;5034880;28;20478;-93
2022/05/31 03:20:49;;;;;;;7.47;5.50;;;16.90;99.90;;;;;;5034388;28;20474;-91
2022/05/31 03:23:27;;;;;;;9.10;5.27;;;16.90;99.90;;;;;;5034435;28;20443;-90
2022/05/31 03:25:55;;;;;;;9.40;5.10;;;16.90;99.90;;;;;;5034900;28;20417;-94
2022/05/31 03:28:22;;;;;;;8.23;5.63;;;17.00;99.90;;;;;;5034937;28;20438;-90
2022/05/31 03:30:48;;;;;;;7.13;5.40;;;16.90;99.90;;;;;;5034664;28;20511;-91
2022/05/31 03:33:14;;;;;;;6.70;5.33;;;16.90;99.90;;;;;;5034120;28;20482;-93
2022/05/31 03:35:41;;;;;;;5.20;4.43;;;16.90;99.90;;;;;;5034832;28;20419;-93
2022/05/31 03:38:07;;;;;;;6.33;5.33;;;16.90;99.90;;;;;;5052784;28;20438;-93
2022/05/31 03:43:17;;;;;;;20.00;10.63;;;17.00;99.90;;;;;;5052806;28;20972;-92
2022/05/31 03:45:44;;;;;;;189.17;80.87;;;16.90;99.90;;;;;;5055673;28;20439;-91
2022/05/31 03:48:11;;;;;;;13.10;10.30;;;17.00;99.90;;;;;;5035764;28;20204;-90
2022/05/31 03:50:39;;;;;;;11.43;7.67;;;17.00;99.90;;;;;;5052884;28;20442;-91
2022/05/31 03:53:06;;;;;;;10.20;6.77;;;16.90;99.90;;;;;;5034715;28;20882;-91
2022/05/31 03:55:36;;;;;;;10.60;6.80;;;17.00;99.90;;;;;;5036989;28;20439;-92
2022/05/31 03:58:02;;;;;;;10.30;6.03;;;16.90;99.90;;;;;;5063099;28;20931;-90
2022/05/31 04:00:28;;;;;;;10.13;6.60;;;16.90;99.90;;;;;;5061565;28;20464;-90
2022/05/31 04:02:55;;;;;;;11.63;6.73;;;17.00;99.90;;;;;;5053628;28;20832;-90
2022/05/31 04:05:22;;;;;;;6.93;5.70;;;17.00;99.90;;;;;;5031613;28;20178;-92
2022/05/31 04:07:55;;;;;;;8.63;6.23;;;17.00;99.90;;;;;;5013783;28;20452;-92
2022/05/31 04:10:21;;;;;;;11.87;6.87;;;17.00;99.90;;;;;;5031797;28;20412;-93
2022/05/31 04:12:48;;;;;;;10.40;5.70;;;17.00;99.90;;;;;;5031595;28;20892;-92
2022/05/31 04:15:14;;;;;;;8.03;5.60;;;17.00;99.90;;;;;;5015062;28;20439;-91
2022/05/31 04:17:40;;;;;;;10.03;5.53;;;17.00;99.90;;;;;;5069987;28;20536;-92
2022/05/31 04:20:06;;;;;;;10.73;6.97;;;17.00;99.90;;;;;;5117574;27;20506;-90
2022/05/31 04:22:33;;;;;;;13.33;7.33;;;17.10;99.90;;;;;;5120101;27;20191;-92
2022/05/31 04:25:01;;;;;;;11.50;8.20;;;17.10;99.90;;;;;;5139939;27;20522;-91
2022/05/31 04:27:28;;;;;;;12.43;8.40;;;17.10;99.90;;;;;;5122184;27;20471;-91
2022/05/31 04:29:54;;;;;;;12.30;7.60;;;17.10;99.90;;;;;;5139878;27;20540;-90
2022/05/31 04:32:20;;;;;;;14.60;8.80;;;17.20;99.90;;;;;;5120859;27;20439;-92
2022/05/31 04:34:46;;;;;;;15.63;9.47;;;17.20;99.90;;;;;;5120773;27;20619;-91
2022/05/31 04:37:13;;;;;;;16.80;10.50;;;17.20;99.90;;;;;;5140157;27;20422;-91
2022/05/31 04:39:39;;;;;;;17.63;10.80;;;17.20;99.90;;;;;;5123424;27;20939;-92
2022/05/31 04:42:07;;;;;;;16.73;9.93;;;17.30;99.90;;;;;;5108362;28;20524;-92
2022/05/31 04:44:33;;;;;;;15.63;9.23;;;17.30;99.90;;;;;;5139257;27;20659;-90
2022/05/31 04:46:59;;;;;;;18.63;9.27;;;17.30;99.90;;;;;;5136706;27;20431;-92
2022/05/31 04:49:25;;;;;;;19.73;10.27;;;17.30;99.90;;;;;;5118222;27;20191;-93
2022/05/31 04:51:50;;;;;;;16.37;9.37;;;17.30;99.90;;;;;;5122446;27;20470;-91
2022/05/31 04:54:20;;;;;;;39.97;21.30;;;17.40;99.90;;;;;;5121847;27;20321;-92
2022/05/31 04:56:46;;;;;;;28.13;17.10;;;17.40;99.90;;;;;;5127420;27;20268;-91
2022/05/31 04:59:12;;;;;;;23.17;11.00;;;17.40;99.90;;;;;;5122570;27;20415;-91
2022/05/31 05:01:38;;;;;;;14.23;9.67;;;17.40;99.90;;;;;;5121937;27;20563;-92
2022/05/31 05:04:05;;;;;;;16.87;9.97;;;17.50;99.90;;;;;;5139169;27;20979;-89
2022/05/31 05:06:31;;;;;;;16.83;9.10;;;17.50;99.90;;;;;;5136039;27;20415;-92
2022/05/31 05:08:57;;;;;;;20.00;9.57;;;17.50;99.90;;;;;;5123408;27;20419;-90
2022/05/31 05:11:23;;;;;;;19.30;8.93;;;17.50;99.90;;;;;;5117484;27;20460;-93
2022/05/31 05:13:50;;;;;;;12.70;7.90;;;17.50;99.90;;;;;;5128021;27;20505;-91
2022/05/31 05:16:18;;;;;;;14.40;7.80;;;17.50;99.90;;;;;;5117059;28;20412;-90
2022/05/31 05:18:44;;;;;;;12.23;7.50;;;17.50;99.90;;;;;;5097190;28;20846;-93
2022/05/31 05:21:12;;;;;;;15.20;8.40;;;17.50;99.90;;;;;;5083027;28;20427;-92
2022/05/31 05:23:38;;;;;;;15.30;8.50;;;17.50;99.90;;;;;;5082337;28;20417;-90
2022/05/31 05:26:05;;;;;;;13.80;8.30;;;17.50;99.90;;;;;;5015226;28;20416;-91
2022/05/31 05:31:24;;;;;;;16.90;9.10;;;17.40;99.90;;;;;;5014997;28;20500;-90
2022/05/31 05:33:50;;;;;;;15.03;8.60;;;17.40;99.90;;;;;;5080679;28;20476;-92
2022/05/31 05:36:17;;;;;;;14.13;8.17;;;17.40;99.90;;;;;;5081920;28;20416;-93
2022/05/31 05:38:43;;;;;;;14.33;7.90;;;17.40;99.90;;;;;;5015607;28;20425;-90
2022/05/31 05:41:10;;;;;;;12.83;8.07;;;17.40;99.90;;;;;;5084532;28;20477;-91
2022/05/31 05:43:35;;;;;;;12.00;8.43;;;17.40;99.90;;;;;;5015667;28;20444;-89
2022/05/31 05:46:01;;;;;;;15.30;7.10;;;17.40;99.90;;;;;;5082257;28;20431;-92
2022/05/31 05:48:27;;;;;;;13.83;6.80;;;17.50;99.90;;;;;;5084149;28;20517;-91
2022/05/31 05:50:53;;;;;;;12.50;7.70;;;17.50;99.90;;;;;;5082439;28;20191;-89
2022/05/31 05:53:18;;;;;;;9.73;6.00;;;17.50;99.90;;;;;;5077726;28;20285;-92
2022/05/31 05:55:44;;;;;;;12.93;5.80;;;17.50;99.90;;;;;;5072207;28;20203;-90
2022/05/31 05:58:10;;;;;;;7.80;5.40;;;17.50;99.90;;;;;;5005253;28;20207;-93
2022/05/31 06:00:46;;;;;;;8.60;4.93;;;17.60;99.90;;;;;;5007556;28;20434;-90
2022/05/31 06:03:27;;;;;;;8.00;5.57;;;17.60;99.90;;;;;;5001855;28;20180;-93
2022/05/31 06:05:54;;;;;;;8.70;4.80;;;17.60;99.90;;;;;;5012558;28;20463;-93
2022/05/31 06:08:25;;;;;;;7.00;5.10;;;17.60;99.90;;;;;;5057816;28;20452;-93
2022/05/31 06:11:16;;;;;;;9.03;4.87;;;17.60;99.90;;;;;;5047011;28;20445;-91
2022/05/31 06:13:51;;;;;;;6.53;4.30;;;17.70;99.90;;;;;;5074710;28;20828;-91
2022/05/31 06:16:19;;;;;;;11.13;4.60;;;17.70;99.90;;;;;;4976839;28;20441;-93
2022/05/31 06:18:55;;;;;;;8.90;4.73;;;17.70;99.90;;;;;;5014635;28;20559;-94
2022/05/31 06:21:23;;;;;;;6.90;4.40;;;17.80;99.90;;;;;;5036967;28;20432;-91
2022/05/31 06:23:49;;;;;;;6.47;5.07;;;17.80;99.90;;;;;;5008874;28;20412;-93
2022/05/31 06:26:18;;;;;;;9.07;5.10;;;17.80;99.90;;;;;;5011908;28;20428;-93
2022/05/31 06:28:45;;;;;;;8.43;4.30;;;17.80;99.90;;;;;;5008862;28;20186;-93
2022/05/31 06:31:10;;;;;;;6.60;4.53;;;17.80;99.90;;;;;;5016371;28;20432;-92
2022/05/31 06:33:36;;;;;;;7.47;4.90;;;17.80;99.90;;;;;;5003990;28;20829;-90
2022/05/31 06:36:02;;;;;;;9.13;5.27;;;17.80;99.90;;;;;;5002769;28;20699;-91
2022/05/31 06:38:31;;;;;;;9.20;5.70;;;17.80;99.90;;;;;;5010092;28;20303;-93
2022/05/31 06:40:57;;;;;;;9.00;5.43;;;17.90;99.90;;;;;;4991276;28;20424;-91
2022/05/31 06:43:23;;;;;;;11.60;5.77;;;17.90;99.90;;;;;;4991174;28;20436;-91
2022/05/31 06:45:50;;;;;;;10.97;5.53;;;17.90;99.90;;;;;;5017850;28;20274;-91
2022/05/31 06:48:17;;;;;;;7.30;5.30;;;17.90;99.90;;;;;;5028097;28;20509;-90
2022/05/31 06:50:43;;;;;;;8.40;5.90;;;17.90;99.90;;;;;;5008380;28;20472;-93
2022/05/31 06:58:42;;;;;;;11.23;5.93;;;17.80;99.90;;;;;;5031029;28;20438;-93
2022/05/31 07:01:07;;;;;;;7.50;4.93;;;17.80;99.90;;;;;;5114117;27;20790;-89
2022/05/31 07:03:33;;;;;;;9.93;6.10;;;17.80;99.90;;;;;;5025903;28;20199;-90
2022/05/31 07:05:59;;;;;;;10.17;6.17;;;17.80;99.90;;;;;;5005163;28;20749;-90
2022/05/31 07:08:25;;;;;;;14.33;6.90;;;17.80;99.90;;;;;;5021500;28;20345;-92
2022/05/31 07:10:52;;;;;;;10.40;5.80;;;17.70;99.90;;;;;;5022220;28;20557;-89
2022/05/31 07:13:18;;;;;;;11.47;6.70;;;17.70;99.90;;;;;;5030717;28;20479;-90
2022/05/31 07:15:44;;;;;;;13.57;7.53;;;17.70;99.90;;;;;;5014714;28;20434;-91
2022/05/31 07:18:10;;;;;;;11.53;6.80;;;17.70;99.90;;;;;;5083499;27;20482;-90
2022/05/31 07:20:36;;;;;;;9.97;6.00;;;17.70;99.90;;;;;;5111662;27;20211;-92
2022/05/31 07:23:01;;;;;;;10.93;6.77;;;17.60;99.90;;;;;;5121099;27;20211;-92
2022/05/31 07:25:27;;;;;;;9.90;6.47;;;17.60;99.90;;;;;;5120484;27;20180;-92
2022/05/31 07:27:53;;;;;;;11.73;6.60;;;17.60;99.90;;;;;;5084403;27;20241;-90
2022/05/31 07:30:19;;;;;;;13.00;6.60;;;17.60;99.90;;;;;;5116154;27;20183;-91
2022/05/31 07:32:44;;;;;;;14.50;6.43;;;17.60;99.90;;;;;;5126573;27;20447;-94
2022/05/31 07:35:10;;;;;;;12.40;7.30;;;17.60;99.90;;;;;;5087818;28;20285;-90
2022/05/31 07:37:37;;;;;;;15.50;6.40;;;17.60;99.90;;;;;;5059435;28;20682;-91
2022/05/31 07:40:06;;;;;;;13.33;7.57;;;17.60;99.90;;;;;;5064729;27;20808;-91
2022/05/31 07:42:32;;;;;;;13.00;7.23;;;17.60;99.90;;;;;;5100050;28;20531;-93
2022/05/31 07:44:58;;;;;;;15.10;6.93;;;17.60;99.90;;;;;;5120221;27;20439;-89
2022/05/31 07:47:25;;;;;;;13.20;8.63;;;17.60;99.90;;;;;;5112863;27;20206;-90
2022/05/31 07:49:50;;;;;;;17.07;8.60;;;17.60;99.90;;;;;;5122921;27;20555;-90
2022/05/31 07:52:17;;;;;;;15.33;8.30;;;17.50;99.90;;;;;;5117185;28;20458;-93
2022/05/31 07:54:43;;;;;;;16.93;10.60;;;17.50;99.90;;;;;;5125854;27;20301;-90
2022/05/31 07:58:30;;;;;;;18.77;10.30;;;17.50;99.90;;;;;;5122461;27;20592;-91
2022/05/31 07:59:55;;;;;;;20.93;10.23;;;17.50;99.90;;;;;;5138199;27;20442;-93
2022/05/31 08:02:21;;;;;;;17.33;9.07;;;17.50;99.90;;;;;;5065227;28;20998;-92
2022/05/31 08:04:47;;;;;;;18.20;9.23;;;17.60;99.90;;;;;;5119497;27;20503;-90
2022/05/31 08:07:12;;;;;;;17.50;9.20;;;17.50;99.90;;;;;;5137406;27;20199;-91
2022/05/31 08:09:38;;;;;;;16.30;9.23;;;17.60;99.90;;;;;;5107712;27;20183;-90
2022/05/31 08:12:09;;;;;;;17.70;8.80;;;17.60;99.90;;;;;;5122223;27;20215;-94
2022/05/31 08:14:35;;;;;;;13.67;8.47;;;17.50;99.90;;;;;;5120064;27;20222;-93
2022/05/31 08:17:03;;;;;;;94.97;43.63;;;17.50;99.90;;;;;;5108847;28;20452;-94
2022/05/31 08:19:29;;;;;;;45.10;25.20;;;17.50;99.90;;;;;;5088302;28;20579;-91
2022/05/31 08:21:56;;;;;;;22.27;10.70;;;17.50;99.90;;;;;;5033493;27;20493;-90
2022/05/31 08:24:23;;;;;;;16.33;10.30;;;17.50;99.90;;;;;;5085998;27;20451;-92
2022/05/31 08:26:49;;;;;;;21.30;11.60;;;17.50;99.90;;;;;;5116810;28;20451;-91
2022/05/31 08:29:16;;;;;;;24.00;12.70;;;17.50;99.90;;;;;;5036988;28;20431;-93
2022/05/31 08:31:42;;;;;;;16.50;9.43;;;17.50;99.90;;;;;;5097430;28;20441;-90
2022/05/31 08:34:08;;;;;;;17.40;10.33;;;17.60;99.90;;;;;;5105049;28;20490;-91
2022/05/31 08:36:34;;;;;;;22.00;12.03;;;17.60;99.90;;;;;;5092991;28;20459;-90
2022/05/31 08:39:00;;;;;;;16.80;10.30;;;17.70;99.90;;;;;;5109781;28;20412;-90
2022/05/31 08:41:32;;;;;;;17.33;10.67;;;17.60;99.90;;;;;;5024446;28;20439;-91
2022/05/31 08:44:29;;;;;;;18.87;11.17;;;17.70;99.90;;;;;;5099931;28;20415;-90
2022/05/31 08:47:03;;;;;;;22.90;11.90;;;17.70;99.90;;;;;;5099259;28;20443;-93
2022/05/31 08:53:22;;;;;;;21.43;11.17;;;17.80;99.90;;;;;;5047878;28;20470;-92
2022/05/31 08:59:05;;;;;;;24.40;13.70;;;17.80;99.90;;;;;;5039854;28;20506;-90
2022/05/31 09:01:34;;;;;;;25.47;13.67;;;17.80;99.90;;;;;;5105041;27;20890;-89
2022/05/31 09:04:14;;;;;;;19.77;13.53;;;18.00;99.90;;;;;;5035370;28;20456;-91
2022/05/31 09:06:48;;;;;;;21.80;12.10;;;18.00;99.90;;;;;;5014036;28;20451;-93
2022/05/31 09:09:26;;;;;;;26.93;12.70;;;18.00;99.90;;;;;;5020973;28;20427;-91
2022/05/31 09:12:04;;;;;;;28.03;13.80;;;18.10;99.90;;;;;;5093070;28;21004;-94
2022/05/31 09:14:46;;;;;;;29.97;13.30;;;18.20;99.90;;;;;;5023120;28;20460;-91
2022/05/31 09:17:38;;;;;;;25.13;11.70;;;18.30;99.90;;;;;;5015438;28;20494;-92
2022/05/31 09:20:25;;;;;;;22.80;12.50;;;18.40;99.90;;;;;;5092095;28;20424;-91
2022/05/31 09:22:51;;;;;;;27.57;13.80;;;18.50;99.90;;;;;;5084686;28;20446;-93
2022/05/31 09:25:17;;;;;;;25.90;13.63;;;18.60;99.90;;;;;;5012105;28;20421;-91
2022/05/31 09:27:47;;;;;;;23.77;13.17;;;18.70;99.90;;;;;;5032356;28;20466;-93
2022/05/31 09:30:27;;;;;;;26.33;13.27;;;18.80;99.90;;;;;;5032285;28;20254;-93
2022/05/31 09:33:06;;;;;;;25.53;13.13;;;18.80;99.90;;;;;;5110216;28;20456;-93
2022/05/31 09:36:06;;;;;;;23.17;12.20;;;18.90;99.90;;;;;;5084856;28;20432;-93
2022/05/31 09:38:51;;;;;;;26.33;11.93;;;18.90;99.90;;;;;;5051217;28;20469;-93
2022/05/31 09:41:46;;;;;;;21.80;13.37;;;18.90;99.90;;;;;;5031825;28;20438;-94
2022/05/31 09:44:34;;;;;;;25.00;13.50;;;18.90;99.90;;;;;;5065517;28;20441;-91
2022/05/31 09:47:10;;;;;;;27.83;13.17;;;18.90;99.90;;;;;;5027068;28;20450;-91
2022/05/31 09:49:46;;;;;;;26.37;13.83;;;18.90;99.90;;;;;;5090038;28;20441;-91
2022/05/31 09:52:31;;;;;;;21.80;11.90;;;18.90;99.90;;;;;;5015576;28;20420;-91
2022/05/31 09:58:10;;;;;;;26.93;14.77;;;19.00;99.90;;;;;;5031622;28;20439;-93
2022/05/31 10:00:38;;;;;;;27.50;13.43;;;19.00;99.90;;;;;;5025218;28;20442;-91
2022/05/31 10:03:14;;;;;;;25.37;13.77;;;19.00;99.90;;;;;;5095719;28;21081;-93
2022/05/31 10:05:42;;;;;;;24.97;13.47;;;19.10;99.90;;;;;;5038888;28;20443;-91
2022/05/31 10:08:32;;;;;;;28.07;14.50;;;19.20;99.90;;;;;;5092511;28;20456;-91
2022/05/31 10:11:11;;;;;;;26.27;14.23;;;19.20;99.90;;;;;;5093954;28;20433;-92
2022/05/31 10:13:42;;;;;;;25.97;14.70;;;19.30;99.90;;;;;;5091622;28;20487;-92
2022/05/31 10:16:19;;;;;;;23.40;13.63;;;19.30;99.90;;;;;;5034316;27;20417;-93
2022/05/31 10:18:54;;;;;;;27.17;14.00;;;19.30;99.90;;;;;;5010162;28;20478;-93
2022/05/31 10:21:26;;;;;;;29.93;15.03;;;19.40;99.90;;;;;;5010115;28;20431;-91
2022/05/31 10:23:52;;;;;;;27.50;14.17;;;19.40;99.90;;;;;;5029842;28;20537;-92
2022/05/31 10:26:26;;;;;;;29.60;16.13;;;19.50;99.90;;;;;;5009051;28;20526;-94
2022/05/31 10:29:00;;;;;;;24.03;13.70;;;19.50;99.90;;;;;;5014680;28;20208;-93
2022/05/31 10:31:36;;;;;;;29.23;14.70;;;19.50;99.90;;;;;;5030868;28;20452;-91
2022/05/31 10:34:24;;;;;;;31.30;15.70;;;19.50;99.90;;;;;;5004920;28;20485;-92
2022/05/31 10:36:56;;;;;;;26.10;13.80;;;19.50;99.90;;;;;;5010640;28;20461;-91
2022/05/31 10:39:26;;;;;;;24.17;15.33;;;19.50;99.90;;;;;;5011497;28;20418;-93
2022/05/31 10:41:54;;;;;;;26.17;13.90;;;19.50;99.90;;;;;;5011309;28;20820;-93
2022/05/31 10:44:33;;;;;;;23.37;13.47;;;19.50;99.90;;;;;;5017302;28;20462;-95
2022/05/31 10:47:07;;;;;;;28.07;14.30;;;19.50;99.90;;;;;;4996624;28;20618;-94
2022/05/31 10:49:35;;;;;;;22.77;14.97;;;19.50;99.90;;;;;;5015284;28;20464;-94
2022/05/31 10:52:33;;;;;;;21.97;14.10;;;19.50;99.90;;;;;;5028494;28;20464;-91
2022/05/31 10:55:10;;;;;;;27.90;14.57;;;19.50;99.90;;;;;;5015317;28;20482;-93
2022/05/31 10:57:59;;;;;;;29.70;14.43;;;19.40;99.90;;;;;;5011084;28;20504;-91
2022/05/31 11:00:38;;;;;;;36.40;15.47;;;19.50;99.90;;;;;;5017476;28;20488;-91
2022/05/31 11:03:14;;;;;;;30.30;13.50;;;19.50;99.90;;;;;;5030344;28;20433;-91
2022/05/31 11:05:40;;;;;;;29.17;14.90;;;19.50;99.90;;;;;;5018520;28;20440;-92
2022/05/31 11:12:07;;;;;;;22.37;13.90;;;19.60;99.90;;;;;;5034881;28;20304;-93
2022/05/31 11:14:51;;;;;;;26.23;14.07;;;19.60;99.90;;;;;;5021652;28;20468;-93
2022/05/31 11:17:35;;;;;;;23.10;14.13;;;19.70;99.90;;;;;;5031236;28;20490;-91
2022/05/31 11:20:26;;;;;;;26.50;13.87;;;19.70;99.90;;;;;;5113846;27;20416;-91
2022/05/31 11:23:11;;;;;;;24.67;14.03;;;19.70;99.90;;;;;;5104896;27;20900;-91
2022/05/31 11:25:49;;;;;;;27.83;13.63;;;19.80;99.90;;;;;;5105609;27;20834;-91
2022/05/31 11:28:18;;;;;;;27.07;13.90;;;19.80;99.90;;;;;;5123885;27;20465;-91
2022/05/31 11:31:22;;;;;;;26.93;13.10;;;19.80;99.90;;;;;;5104005;27;20446;-91
2022/05/31 11:34:21;;;;;;;33.00;17.10;;;19.90;99.90;;;;;;5103995;27;21034;-92
2022/05/31 11:37:05;;;;;;;33.33;15.87;;;19.90;99.90;;;;;;5104096;27;20539;-91
2022/05/31 11:39:44;;;;;;;29.90;14.73;;;20.00;99.90;;;;;;5118826;27;20457;-93
2022/05/31 11:42:25;;;;;;;23.53;14.37;;;20.00;99.90;;;;;;5117844;27;20467;-93
2022/05/31 11:45:08;;;;;;;28.93;16.23;;;20.00;99.90;;;;;;5123550;27;20473;-93
2022/05/31 11:47:47;;;;;;;28.57;15.87;;;20.00;99.90;;;;;;5110757;28;20475;-92
2022/05/31 11:50:22;;;;;;;34.80;17.50;;;20.00;99.90;;;;;;5108578;28;20509;-91
2022/05/31 11:53:08;;;;;;;26.97;14.40;;;20.00;99.90;;;;;;5128802;28;20791;-92
2022/05/31 11:56:15;;;;;;;26.07;15.60;;;20.00;99.90;;;;;;5120933;28;20847;-93
2022/05/31 11:58:56;;;;;;;24.83;13.77;;;20.00;99.90;;;;;;5067984;28;20476;-92
2022/05/31 12:01:50;;;;;;;27.20;14.93;;;20.00;99.90;;;;;;5104505;28;21093;-92
2022/05/31 12:04:37;;;;;;;22.10;13.27;;;20.10;99.90;;;;;;5129671;28;20435;-92
2022/05/31 12:07:26;;;;;;;29.77;14.37;;;20.10;99.90;;;;;;5102154;28;20462;-94
2022/05/31 12:09:59;;;;;;;27.07;15.53;;;20.10;99.90;;;;;;5120920;28;20478;-94
2022/05/31 12:12:31;;;;;;;22.30;13.40;;;20.20;99.90;;;;;;5106922;28;20508;-92
2022/05/31 12:15:23;;;;;;;29.03;13.73;;;20.20;99.90;;;;;;5102216;28;20470;-93
2022/05/31 12:18:17;;;;;;;21.57;12.00;;;20.30;99.90;;;;;;5116480;28;20512;-93
2022/05/31 12:21:13;;;;;;;21.17;13.10;;;20.30;99.90;;;;;;5105221;28;20812;-91
2022/05/31 12:23:46;;;;;;;24.83;15.00;;;20.40;99.90;;;;;;5116542;28;20767;-93
2022/05/31 12:26:59;;;;;;;21.63;12.23;;;20.50;99.90;;;;;;5104693;28;20467;-93
2022/05/31 12:29:43;;;;;;;23.40;14.03;;;20.60;99.90;;;;;;5091498;28;20447;-91
2022/05/31 12:32:20;;;;;;;22.70;12.33;;;20.60;99.90;;;;;;5101312;28;20452;-93
2022/05/31 12:34:47;;;;;;;28.03;13.53;;;20.60;99.90;;;;;;5112395;28;20478;-90
2022/05/31 12:37:14;;;;;;;19.83;11.90;;;20.70;99.90;;;;;;5106873;28;20484;-91
2022/05/31 12:39:43;;;;;;;18.87;11.63;;;20.70;99.90;;;;;;5103614;28;20480;-91
2022/05/31 12:42:15;;;;;;;22.80;12.97;;;20.70;99.90;;;;;;5109867;27;20507;-94
2022/05/31 12:44:46;;;;;;;19.03;11.03;;;20.70;99.90;;;;;;5102776;27;20447;-91
2022/05/31 12:47:33;;;;;;;19.93;11.40;;;20.70;99.90;;;;;;5133841;27;21430;-93
2022/05/31 12:50:04;;;;;;;19.53;11.47;;;20.80;99.90;;;;;;5108592;27;20859;-91
2022/05/31 12:55:37;;;;;;;17.63;11.00;;;20.90;99.90;;;;;;5129939;27;20447;-93
2022/05/31 12:58:26;;;;;;;21.10;11.20;;;21.00;99.90;;;;;;5112791;27;20483;-92
2022/05/31 13:00:57;;;;;;;22.07;10.80;;;21.00;99.90;;;;;;5118118;27;20186;-91
2022/05/31 13:03:35;;;;;;;24.00;14.37;;;21.10;99.90;;;;;;5111832;27;20453;-92
2022/05/31 13:06:07;;;;;;;23.00;13.23;;;21.10;99.90;;;;;;5130362;27;21009;-92
2022/05/31 13:08:51;;;;;;;22.83;11.80;;;21.10;99.90;;;;;;5113172;27;20449;-92
2022/05/31 13:20:00;;;;;;;20.50;11.50;;;21.10;99.90;;;;;;5134378;27;20469;-91
2022/05/31 13:22:26;;;;;;;21.03;12.30;;;21.10;99.90;;;;;;5118685;27;20446;-90
2022/05/31 13:25:04;;;;;;;18.80;11.17;;;21.10;99.90;;;;;;5133761;27;20565;-91
2022/05/31 13:27:37;;;;;;;25.20;11.40;;;21.10;99.90;;;;;;5106356;28;20450;-92
2022/05/31 13:30:12;;;;;;;17.33;10.33;;;21.20;99.90;;;;;;5130031;27;20453;-92
2022/05/31 13:32:38;;;;;;;22.73;12.10;;;21.20;99.90;;;;;;5117289;27;20450;-90
2022/05/31 13:35:29;;;;;;;24.77;13.00;;;21.20;99.90;;;;;;5100181;28;20542;-90